KFMM

Details ICAO KFMM
Name FORT MORGAN MUNI
Region United States
Timezone America/Denver (UTC-7.0)
Plans Departing 1
Arriving 2
Stats Elevation 4,569 ft / 1,393 m (AMSL)
Location 40.333743° -103.803996°
Runways 3
Magnetic Variation 7.627° E
Sunrise 2017-12-16 14:13:13 UTC / 2017-12-16 07:13:13 Local
Sunset 2017-12-16 23:31:31 UTC / 2017-12-16 16:31:31 Local
Advertisement - Login to hide

Runways

ID Width Length Bearing (true) Bearing (mag) Surface Threshold Offset Overrun Length
08 100 ft / 30 m 2,462 ft / 750 m 89.85° 82.22° Dirt 0 ft / 0 m 0 ft / 0 m
14 60 ft / 18 m 5,223 ft / 1,592 m 151.70° 144.07° Concrete 0 ft / 0 m 0 ft / 0 m
17 30 ft / 9 m 3,807 ft / 1,160 m 181.18° 173.55° Dirt 0 ft / 0 m 0 ft / 0 m
26 100 ft / 30 m 2,462 ft / 750 m 269.86° 262.23° Dirt 0 ft / 0 m 0 ft / 0 m
32 60 ft / 18 m 5,223 ft / 1,592 m 331.71° 324.08° Concrete 0 ft / 0 m 0 ft / 0 m
35 30 ft / 9 m 3,807 ft / 1,160 m 1.18° 353.55° Dirt 0 ft / 0 m 0 ft / 0 m

Map

Weather


0- 5 10 15 20 25 30 35+ Temperature / ° C

Clouds and Precipitation
Forecast for 2017-12-16 18:00 UTC. Updated 18 minutes ago

Ground ~20,000 ft ~40,000 ft Winds

METAR

KFMM 161535Z AUTO 36009KT 10SM CLR 07/M14 A2981 RMK AO2 T00661136

TAF

Not found

Frequencies

Recorded 132.95 MHz AWOS 3
Unicom 123.05 MHz CTAF/UNICOM
Warning: Do not use this data for real-world aviation or navigation. No guarantee of current accuracy is given.